sensor_id;sensor_type;location;lat;lon;timestamp;P1;durP1;ratioP1;P2;durP2;ratioP2
4078;SDS011;2054;47.858;11.156;2023-08-06T02:47:13;4.13;;;2.60;;
4078;SDS011;2054;47.858;11.156;2023-08-06T02:49:40;3.88;;;2.75;;
4078;SDS011;2054;47.858;11.156;2023-08-06T02:52:07;3.03;;;2.63;;
4078;SDS011;2054;47.858;11.156;2023-08-06T02:54:34;3.83;;;2.55;;
4078;SDS011;2054;47.858;11.156;2023-08-06T02:57:01;3.22;;;2.92;;
4078;SDS011;2054;47.858;11.156;2023-08-06T02:59:28;2.65;;;2.20;;
4078;SDS011;2054;47.858;11.156;2023-08-06T03:01:54;4.03;;;2.80;;
4078;SDS011;2054;47.858;11.156;2023-08-06T03:04:23;3.38;;;2.30;;
4078;SDS011;2054;47.858;11.156;2023-08-06T03:06:50;3.85;;;2.28;;
4078;SDS011;2054;47.858;11.156;2023-08-06T03:09:16;3.47;;;2.63;;
4078;SDS011;2054;47.858;11.156;2023-08-06T03:11:44;2.47;;;2.28;;
4078;SDS011;2054;47.858;11.156;2023-08-06T03:14:11;2.97;;;2.67;;
4078;SDS011;2054;47.858;11.156;2023-08-06T03:16:38;4.18;;;2.40;;
4078;SDS011;2054;47.858;11.156;2023-08-06T03:19:05;3.42;;;2.40;;
4078;SDS011;2054;47.858;11.156;2023-08-06T03:21:33;3.90;;;2.35;;
4078;SDS011;2054;47.858;11.156;2023-08-06T03:24:00;4.60;;;2.72;;
4078;SDS011;2054;47.858;11.156;2023-08-06T03:26:27;2.40;;;2.10;;
4078;SDS011;2054;47.858;11.156;2023-08-06T03:28:54;4.80;;;2.60;;
4078;SDS011;2054;47.858;11.156;2023-08-06T03:31:20;2.72;;;2.53;;
4078;SDS011;2054;47.858;11.156;2023-08-06T03:33:48;3.50;;;2.60;;
4078;SDS011;2054;47.858;11.156;2023-08-06T03:36:15;3.08;;;2.78;;
4078;SDS011;2054;47.858;11.156;2023-08-06T03:38:43;3.15;;;2.60;;
4078;SDS011;2054;47.858;11.156;2023-08-06T03:41:10;3.92;;;2.40;;
4078;SDS011;2054;47.858;11.156;2023-08-06T03:43:37;3.97;;;2.35;;
4078;SDS011;2054;47.858;11.156;2023-08-06T03:46:04;5.05;;;2.38;;
4078;SDS011;2054;47.858;11.156;2023-08-06T03:48:31;2.70;;;2.50;;
4078;SDS011;2054;47.858;11.156;2023-08-06T03:50:58;3.88;;;2.53;;
4078;SDS011;2054;47.858;11.156;2023-08-06T03:53:26;2.50;;;2.30;;
4078;SDS011;2054;47.858;11.156;2023-08-06T03:55:54;2.58;;;2.20;;
4078;SDS011;2054;47.858;11.156;2023-08-06T03:58:24;4.75;;;2.60;;
4078;SDS011;2054;47.858;11.156;2023-08-06T04:00:57;2.65;;;2.45;;
4078;SDS011;2054;47.858;11.156;2023-08-06T04:03:25;3.20;;;2.20;;
4078;SDS011;2054;47.858;11.156;2023-08-06T04:05:52;3.05;;;2.08;;
4078;SDS011;2054;47.858;11.156;2023-08-06T04:08:19;2.25;;;2.08;;
4078;SDS011;2054;47.858;11.156;2023-08-06T04:10:48;2.50;;;2.30;;
4078;SDS011;2054;47.858;11.156;2023-08-06T04:13:17;2.75;;;2.35;;
4078;SDS011;2054;47.858;11.156;2023-08-06T04:15:44;2.92;;;2.30;;
4078;SDS011;2054;47.858;11.156;2023-08-06T04:18:11;3.05;;;2.60;;
4078;SDS011;2054;47.858;11.156;2023-08-06T04:20:42;2.53;;;2.22;;
4078;SDS011;2054;47.858;11.156;2023-08-06T04:23:10;2.60;;;2.30;;
4078;SDS011;2054;47.858;11.156;2023-08-06T04:25:36;2.50;;;2.30;;
4078;SDS011;2054;47.858;11.156;2023-08-06T04:28:03;2.97;;;2.35;;
4078;SDS011;2054;47.858;11.156;2023-08-06T04:30:32;2.55;;;2.35;;
4078;SDS011;2054;47.858;11.156;2023-08-06T04:32:59;3.00;;;2.40;;
4078;SDS011;2054;47.858;11.156;2023-08-06T04:35:26;5.85;;;2.33;;
4078;SDS011;2054;47.858;11.156;2023-08-06T04:37:53;3.65;;;2.22;;
4078;SDS011;2054;47.858;11.156;2023-08-06T04:40:20;2.58;;;2.30;;
4078;SDS011;2054;47.858;11.156;2023-08-06T04:42:47;2.88;;;2.22;;
4078;SDS011;2054;47.858;11.156;2023-08-06T04:45:14;3.22;;;2.60;;
4078;SDS011;2054;47.858;11.156;2023-08-06T04:47:42;7.57;;;2.60;;
4078;SDS011;2054;47.858;11.156;2023-08-06T04:50:09;3.78;;;2.28;;
4078;SDS011;2054;47.858;11.156;2023-08-06T04:52:37;3.13;;;2.35;;
4078;SDS011;2054;47.858;11.156;2023-08-06T04:55:04;2.33;;;2.13;;
4078;SDS011;2054;47.858;11.156;2023-08-06T04:57:32;3.03;;;2.45;;
4078;SDS011;2054;47.858;11.156;2023-08-06T04:59:58;2.75;;;2.10;;
4078;SDS011;2054;47.858;11.156;2023-08-06T05:02:25;3.70;;;2.40;;
4078;SDS011;2054;47.858;11.156;2023-08-06T05:04:54;2.38;;;2.00;;
4078;SDS011;2054;47.858;11.156;2023-08-06T05:07:20;2.78;;;2.47;;
4078;SDS011;2054;47.858;11.156;2023-08-06T05:09:47;2.17;;;2.00;;
4078;SDS011;2054;47.858;11.156;2023-08-06T05:12:14;4.15;;;2.25;;
4078;SDS011;2054;47.858;11.156;2023-08-06T05:14:41;3.72;;;2.20;;
4078;SDS011;2054;47.858;11.156;2023-08-06T05:17:08;2.30;;;2.10;;
4078;SDS011;2054;47.858;11.156;2023-08-06T05:19:35;2.75;;;2.25;;
4078;SDS011;2054;47.858;11.156;2023-08-06T05:22:03;3.63;;;2.17;;
4078;SDS011;2054;47.858;11.156;2023-08-06T05:24:30;2.67;;;2.25;;
4078;SDS011;2054;47.858;11.156;2023-08-06T05:26:57;2.17;;;1.92;;
4078;SDS011;2054;47.858;11.156;2023-08-06T05:29:24;2.50;;;2.10;;
4078;SDS011;2054;47.858;11.156;2023-08-06T05:31:52;2.42;;;2.10;;
4078;SDS011;2054;47.858;11.156;2023-08-06T05:34:19;2.30;;;1.77;;
4078;SDS011;2054;47.858;11.156;2023-08-06T05:36:45;3.45;;;2.03;;
4078;SDS011;2054;47.858;11.156;2023-08-06T05:39:14;1.75;;;1.65;;
4078;SDS011;2054;47.858;11.156;2023-08-06T05:41:41;2.20;;;2.00;;
4078;SDS011;2054;47.858;11.156;2023-08-06T05:44:08;2.08;;;1.83;;
4078;SDS011;2054;47.858;11.156;2023-08-06T05:46:35;3.95;;;1.95;;
4078;SDS011;2054;47.858;11.156;2023-08-06T05:49:02;3.65;;;2.00;;
4078;SDS011;2054;47.858;11.156;2023-08-06T05:51:30;2.40;;;1.80;;
4078;SDS011;2054;47.858;11.156;2023-08-06T05:53:57;3.60;;;1.80;;
4078;SDS011;2054;47.858;11.156;2023-08-06T05:56:25;2.50;;;1.85;;
4078;SDS011;2054;47.858;11.156;2023-08-06T05:58:52;2.30;;;1.92;;
4078;SDS011;2054;47.858;11.156;2023-08-06T06:01:19;1.85;;;1.75;;
4078;SDS011;2054;47.858;11.156;2023-08-06T06:03:46;1.95;;;1.60;;
4078;SDS011;2054;47.858;11.156;2023-08-06T06:06:12;2.22;;;1.73;;
4078;SDS011;2054;47.858;11.156;2023-08-06T06:08:39;3.08;;;1.48;;
4078;SDS011;2054;47.858;11.156;2023-08-06T06:11:06;2.13;;;1.70;;
4078;SDS011;2054;47.858;11.156;2023-08-06T06:13:35;2.58;;;1.70;;
4078;SDS011;2054;47.858;11.156;2023-08-06T06:16:02;1.50;;;1.40;;
4078;SDS011;2054;47.858;11.156;2023-08-06T06:18:30;2.90;;;1.52;;
4078;SDS011;2054;47.858;11.156;2023-08-06T06:20:57;1.77;;;1.50;;
4078;SDS011;2054;47.858;11.156;2023-08-06T06:23:24;1.88;;;1.40;;
4078;SDS011;2054;47.858;11.156;2023-08-06T06:25:51;1.85;;;1.55;;
4078;SDS011;2054;47.858;11.156;2023-08-06T06:28:18;3.13;;;1.60;;
4078;SDS011;2054;47.858;11.156;2023-08-06T06:30:46;4.65;;;1.30;;
4078;SDS011;2054;47.858;11.156;2023-08-06T06:33:13;2.65;;;1.35;;
4078;SDS011;2054;47.858;11.156;2023-08-06T06:35:40;2.35;;;1.40;;
4078;SDS011;2054;47.858;11.156;2023-08-06T06:38:07;3.92;;;1.60;;
4078;SDS011;2054;47.858;11.156;2023-08-06T06:40:34;3.63;;;1.30;;
4078;SDS011;2054;47.858;11.156;2023-08-06T06:43:01;2.20;;;1.38;;
4078;SDS011;2054;47.858;11.156;2023-08-06T06:45:28;1.77;;;1.52;;
4078;SDS011;2054;47.858;11.156;2023-08-06T06:47:56;3.28;;;1.55;;
4078;SDS011;2054;47.858;11.156;2023-08-06T06:50:23;1.55;;;1.17;;
4078;SDS011;2054;47.858;11.156;2023-08-06T06:52:51;1.90;;;1.15;;
4078;SDS011;2054;47.858;11.156;2023-08-06T06:55:18;1.77;;;1.55;;
4078;SDS011;2054;47.858;11.156;2023-08-06T06:57:45;1.70;;;1.30;;
4078;SDS011;2054;47.858;11.156;2023-08-06T07:00:12;1.88;;;1.50;;
4078;SDS011;2054;47.858;11.156;2023-08-06T07:02:40;2.15;;;1.38;;
4078;SDS011;2054;47.858;11.156;2023-08-06T07:05:09;1.48;;;1.10;;
4078;SDS011;2054;47.858;11.156;2023-08-06T07:07:35;1.77;;;1.33;;
4078;SDS011;2054;47.858;11.156;2023-08-06T07:10:04;3.05;;;1.85;;
4078;SDS011;2054;47.858;11.156;2023-08-06T07:12:31;1.75;;;1.40;;
4078;SDS011;2054;47.858;11.156;2023-08-06T07:14:59;1.75;;;1.23;;
4078;SDS011;2054;47.858;11.156;2023-08-06T07:17:25;3.05;;;1.35;;
4078;SDS011;2054;47.858;11.156;2023-08-06T07:19:52;2.60;;;1.60;;
4078;SDS011;2054;47.858;11.156;2023-08-06T07:22:20;2.35;;;1.30;;
4078;SDS011;2054;47.858;11.156;2023-08-06T07:24:47;1.67;;;1.30;;
4078;SDS011;2054;47.858;11.156;2023-08-06T07:27:14;1.77;;;1.08;;
4078;SDS011;2054;47.858;11.156;2023-08-06T07:29:41;2.30;;;1.33;;
4078;SDS011;2054;47.858;11.156;2023-08-06T07:32:08;1.25;;;1.13;;
4078;SDS011;2054;47.858;11.156;2023-08-06T07:34:35;2.60;;;1.10;;
4078;SDS011;2054;47.858;11.156;2023-08-06T07:37:02;1.20;;;1.10;;
4078;SDS011;2054;47.858;11.156;2023-08-06T07:39:30;1.33;;;0.90;;
4078;SDS011;2054;47.858;11.156;2023-08-06T07:41:57;1.92;;;1.08;;
4078;SDS011;2054;47.858;11.156;2023-08-06T07:44:24;1.95;;;1.10;;
4078;SDS011;2054;47.858;11.156;2023-08-06T07:46:51;0.90;;;0.80;;
4078;SDS011;2054;47.858;11.156;2023-08-06T07:49:18;3.72;;;0.93;;
4078;SDS011;2054;47.858;11.156;2023-08-06T07:51:45;1.23;;;0.80;;
4078;SDS011;2054;47.858;11.156;2023-08-06T07:54:12;1.40;;;0.80;;
4078;SDS011;2054;47.858;11.156;2023-08-06T07:56:40;1.52;;;1.23;;
4078;SDS011;2054;47.858;11.156;2023-08-06T07:59:07;2.30;;;0.98;;
4078;SDS011;2054;47.858;11.156;2023-08-06T08:01:35;2.13;;;0.90;;
4078;SDS011;2054;47.858;11.156;2023-08-06T08:04:02;3.50;;;0.77;;
4078;SDS011;2054;47.858;11.156;2023-08-06T08:06:30;2.40;;;1.10;;
4078;SDS011;2054;47.858;11.156;2023-08-06T08:08:57;1.75;;;0.82;;
4078;SDS011;2054;47.858;11.156;2023-08-06T08:11:25;1.73;;;0.80;;
4078;SDS011;2054;47.858;11.156;2023-08-06T08:13:54;3.50;;;0.80;;
4078;SDS011;2054;47.858;11.156;2023-08-06T08:16:20;1.15;;;0.80;;
4078;SDS011;2054;47.858;11.156;2023-08-06T08:18:47;2.40;;;0.70;;
4078;SDS011;2054;47.858;11.156;2023-08-06T08:21:14;1.98;;;0.80;;
4078;SDS011;2054;47.858;11.156;2023-08-06T08:23:41;2.67;;;0.73;;
4078;SDS011;2054;47.858;11.156;2023-08-06T08:26:09;1.95;;;0.80;;
4078;SDS011;2054;47.858;11.156;2023-08-06T08:28:38;0.75;;;0.60;;
4078;SDS011;2054;47.858;11.156;2023-08-06T08:31:09;1.50;;;0.60;;
4078;SDS011;2054;47.858;11.156;2023-08-06T08:33:36;1.75;;;0.60;;
4078;SDS011;2054;47.858;11.156;2023-08-06T08:36:03;1.15;;;0.60;;
4078;SDS011;2054;47.858;11.156;2023-08-06T08:38:30;0.93;;;0.70;;
4078;SDS011;2054;47.858;11.156;2023-08-06T08:40:57;0.70;;;0.50;;
4078;SDS011;2054;47.858;11.156;2023-08-06T08:43:24;1.38;;;0.60;;
4078;SDS011;2054;47.858;11.156;2023-08-06T08:45:52;1.55;;;0.55;;
4078;SDS011;2054;47.858;11.156;2023-08-06T08:48:25;0.70;;;0.70;;
4078;SDS011;2054;47.858;11.156;2023-08-06T08:50:53;0.50;;;0.50;;
4078;SDS011;2054;47.858;11.156;2023-08-06T08:53:22;0.90;;;0.60;;
4078;SDS011;2054;47.858;11.156;2023-08-06T08:55:49;1.75;;;0.73;;
4078;SDS011;2054;47.858;11.156;2023-08-06T08:58:16;1.25;;;0.70;;
4078;SDS011;2054;47.858;11.156;2023-08-06T09:00:44;0.60;;;0.60;;
4078;SDS011;2054;47.858;11.156;2023-08-06T09:03:13;0.70;;;0.60;;
4078;SDS011;2054;47.858;11.156;2023-08-06T09:05:43;0.60;;;0.50;;
4078;SDS011;2054;47.858;11.156;2023-08-06T09:08:11;1.00;;;0.70;;
4078;SDS011;2054;47.858;11.156;2023-08-06T09:10:41;0.60;;;0.60;;
4078;SDS011;2054;47.858;11.156;2023-08-06T09:13:10;1.75;;;0.60;;
4078;SDS011;2054;47.858;11.156;2023-08-06T09:15:37;0.65;;;0.50;;
4078;SDS011;2054;47.858;11.156;2023-08-06T09:18:09;0.70;;;0.70;;
4078;SDS011;2054;47.858;11.156;2023-08-06T09:20:37;0.55;;;0.55;;
4078;SDS011;2054;47.858;11.156;2023-08-06T09:23:08;0.95;;;0.60;;
4078;SDS011;2054;47.858;11.156;2023-08-06T09:25:36;1.45;;;0.63;;
4078;SDS011;2054;47.858;11.156;2023-08-06T09:28:05;0.50;;;0.50;;
4078;SDS011;2054;47.858;11.156;2023-08-06T09:30:33;1.33;;;0.98;;
4078;SDS011;2054;47.858;11.156;2023-08-06T09:33:03;1.05;;;0.55;;
4078;SDS011;2054;47.858;11.156;2023-08-06T09:35:35;0.50;;;0.50;;
4078;SDS011;2054;47.858;11.156;2023-08-06T09:38:06;0.50;;;0.50;;
4078;SDS011;2054;47.858;11.156;2023-08-06T09:40:35;0.50;;;0.50;;
4078;SDS011;2054;47.858;11.156;2023-08-06T09:43:03;1.92;;;0.60;;
4078;SDS011;2054;47.858;11.156;2023-08-06T09:45:31;1.15;;;0.70;;
4078;SDS011;2054;47.858;11.156;2023-08-06T09:47:59;1.58;;;0.60;;
4078;SDS011;2054;47.858;11.156;2023-08-06T09:50:28;0.50;;;0.50;;
4078;SDS011;2054;47.858;11.156;2023-08-06T09:52:57;0.70;;;0.70;;
4078;SDS011;2054;47.858;11.156;2023-08-06T09:55:26;0.40;;;0.40;;
4078;SDS011;2054;47.858;11.156;2023-08-06T09:57:53;0.52;;;0.52;;
4078;SDS011;2054;47.858;11.156;2023-08-06T10:00:20;1.85;;;0.50;;
4078;SDS011;2054;47.858;11.156;2023-08-06T10:02:48;0.50;;;0.50;;
4078;SDS011;2054;47.858;11.156;2023-08-06T10:05:19;0.40;;;0.40;;
4078;SDS011;2054;47.858;11.156;2023-08-06T10:07:47;0.65;;;0.65;;
4078;SDS011;2054;47.858;11.156;2023-08-06T10:10:16;0.52;;;0.52;;
4078;SDS011;2054;47.858;11.156;2023-08-06T10:12:46;2.17;;;0.55;;
4078;SDS011;2054;47.858;11.156;2023-08-06T10:15:16;0.50;;;0.50;;
4078;SDS011;2054;47.858;11.156;2023-08-06T10:17:47;1.30;;;1.20;;
4078;SDS011;2054;47.858;11.156;2023-08-06T10:20:15;0.63;;;0.52;;
4078;SDS011;2054;47.858;11.156;2023-08-06T10:22:43;0.70;;;0.65;;
4078;SDS011;2054;47.858;11.156;2023-08-06T10:25:10;1.98;;;0.65;;
4078;SDS011;2054;47.858;11.156;2023-08-06T10:27:54;0.77;;;0.70;;
4078;SDS011;2054;47.858;11.156;2023-08-06T10:30:22;1.15;;;0.70;;
4078;SDS011;2054;47.858;11.156;2023-08-06T10:32:50;1.20;;;0.60;;
4078;SDS011;2054;47.858;11.156;2023-08-06T10:35:28;0.60;;;0.60;;
4078;SDS011;2054;47.858;11.156;2023-08-06T10:37:59;0.60;;;0.50;;
4078;SDS011;2054;47.858;11.156;2023-08-06T10:40:29;2.70;;;1.52;;
4078;SDS011;2054;47.858;11.156;2023-08-06T10:42:59;0.73;;;0.63;;
4078;SDS011;2054;47.858;11.156;2023-08-06T10:45:27;0.52;;;0.40;;
4078;SDS011;2054;47.858;11.156;2023-08-06T10:47:55;0.50;;;0.50;;
4078;SDS011;2054;47.858;11.156;2023-08-06T10:50:23;0.43;;;0.43;;
4078;SDS011;2054;47.858;11.156;2023-08-06T10:52:51;0.50;;;0.50;;
4078;SDS011;2054;47.858;11.156;2023-08-06T10:55:24;0.40;;;0.40;;
4078;SDS011;2054;47.858;11.156;2023-08-06T10:57:53;0.50;;;0.50;;
4078;SDS011;2054;47.858;11.156;2023-08-06T11:00:22;0.60;;;0.60;;
4078;SDS011;2054;47.858;11.156;2023-08-06T11:02:49;0.45;;;0.45;;
4078;SDS011;2054;47.858;11.156;2023-08-06T11:05:17;0.50;;;0.50;;
4078;SDS011;2054;47.858;11.156;2023-08-06T11:07:44;0.50;;;0.50;;
4078;SDS011;2054;47.858;11.156;2023-08-06T11:10:13;0.40;;;0.40;;
4078;SDS011;2054;47.858;11.156;2023-08-06T11:12:40;0.50;;;0.50;;
4078;SDS011;2054;47.858;11.156;2023-08-06T11:15:07;0.50;;;0.50;;
4078;SDS011;2054;47.858;11.156;2023-08-06T11:17:39;0.55;;;0.45;;
4078;SDS011;2054;47.858;11.156;2023-08-06T11:20:08;0.40;;;0.40;;
4078;SDS011;2054;47.858;11.156;2023-08-06T11:22:35;1.23;;;0.40;;
4078;SDS011;2054;47.858;11.156;2023-08-06T11:25:03;0.77;;;0.77;;
4078;SDS011;2054;47.858;11.156;2023-08-06T11:27:31;1.55;;;0.98;;
4078;SDS011;2054;47.858;11.156;2023-08-06T11:29:58;0.73;;;0.73;;
4078;SDS011;2054;47.858;11.156;2023-08-06T11:32:25;1.30;;;1.08;;
4078;SDS011;2054;47.858;11.156;2023-08-06T11:34:55;0.70;;;0.70;;
4078;SDS011;2054;47.858;11.156;2023-08-06T11:37:23;0.60;;;0.60;;
4078;SDS011;2054;47.858;11.156;2023-08-06T11:39:51;0.55;;;0.55;;
4078;SDS011;2054;47.858;11.156;2023-08-06T11:42:18;1.52;;;0.47;;
4078;SDS011;2054;47.858;11.156;2023-08-06T11:44:45;0.43;;;0.43;;
4078;SDS011;2054;47.858;11.156;2023-08-06T11:47:13;0.50;;;0.50;;
4078;SDS011;2054;47.858;11.156;2023-08-06T11:49:45;0.60;;;0.60;;
4078;SDS011;2054;47.858;11.156;2023-08-06T11:52:15;0.70;;;0.70;;
4078;SDS011;2054;47.858;11.156;2023-08-06T11:54:44;0.40;;;0.40;;
4078;SDS011;2054;47.858;11.156;2023-08-06T11:57:12;0.57;;;0.57;;
4078;SDS011;2054;47.858;11.156;2023-08-06T11:59:39;0.57;;;0.57;;
4078;SDS011;2054;47.858;11.156;2023-08-06T12:02:08;0.57;;;0.57;;
4078;SDS011;2054;47.858;11.156;2023-08-06T12:07:28;0.47;;;0.47;;
4078;SDS011;2054;47.858;11.156;2023-08-06T12:09:55;0.45;;;0.45;;
4078;SDS011;2054;47.858;11.156;2023-08-06T12:12:22;0.40;;;0.40;;
4078;SDS011;2054;47.858;11.156;2023-08-06T12:14:49;1.17;;;0.40;;
4078;SDS011;2054;47.858;11.156;2023-08-06T12:17:16;0.50;;;0.50;;
4078;SDS011;2054;47.858;11.156;2023-08-06T12:19:44;1.73;;;0.45;;
4078;SDS011;2054;47.858;11.156;2023-08-06T12:22:12;0.50;;;0.50;;
4078;SDS011;2054;47.858;11.156;2023-08-06T12:24:40;0.50;;;0.50;;
4078;SDS011;2054;47.858;11.156;2023-08-06T12:27:07;0.52;;;0.52;;
4078;SDS011;2054;47.858;11.156;2023-08-06T12:29:35;0.50;;;0.50;;
4078;SDS011;2054;47.858;11.156;2023-08-06T12:32:03;0.88;;;0.40;;
4078;SDS011;2054;47.858;11.156;2023-08-06T12:34:31;0.40;;;0.40;;
4078;SDS011;2054;47.858;11.156;2023-08-06T12:36:58;3.80;;;0.75;;
4078;SDS011;2054;47.858;11.156;2023-08-06T12:39:25;1.27;;;0.45;;
4078;SDS011;2054;47.858;11.156;2023-08-06T12:41:55;0.93;;;0.50;;
4078;SDS011;2054;47.858;11.156;2023-08-06T12:44:22;0.40;;;0.40;;
4078;SDS011;2054;47.858;11.156;2023-08-06T12:46:49;0.40;;;0.40;;
4078;SDS011;2054;47.858;11.156;2023-08-06T12:49:16;0.40;;;0.40;;
4078;SDS011;2054;47.858;11.156;2023-08-06T12:51:46;0.50;;;0.50;;
4078;SDS011;2054;47.858;11.156;2023-08-06T12:54:13;1.48;;;0.43;;
4078;SDS011;2054;47.858;11.156;2023-08-06T12:56:40;0.50;;;0.50;;
4078;SDS011;2054;47.858;11.156;2023-08-06T12:59:08;0.43;;;0.40;;
4078;SDS011;2054;47.858;11.156;2023-08-06T13:01:37;0.45;;;0.40;;
4078;SDS011;2054;47.858;11.156;2023-08-06T13:04:04;0.40;;;0.40;;
4078;SDS011;2054;47.858;11.156;2023-08-06T13:06:31;0.50;;;0.50;;
4078;SDS011;2054;47.858;11.156;2023-08-06T13:09:01;0.30;;;0.30;;
4078;SDS011;2054;47.858;11.156;2023-08-06T13:11:28;0.47;;;0.47;;
4078;SDS011;2054;47.858;11.156;2023-08-06T13:13:56;0.45;;;0.45;;
4078;SDS011;2054;47.858;11.156;2023-08-06T13:16:27;0.60;;;0.60;;
4078;SDS011;2054;47.858;11.156;2023-08-06T13:18:54;0.50;;;0.50;;
4078;SDS011;2054;47.858;11.156;2023-08-06T13:21:21;1.90;;;0.60;;
4078;SDS011;2054;47.858;11.156;2023-08-06T13:23:48;1.13;;;0.50;;
4078;SDS011;2054;47.858;11.156;2023-08-06T13:26:15;1.45;;;0.57;;
4078;SDS011;2054;47.858;11.156;2023-08-06T13:28:41;0.93;;;0.52;;
4078;SDS011;2054;47.858;11.156;2023-08-06T13:31:09;0.50;;;0.50;;
4078;SDS011;2054;47.858;11.156;2023-08-06T13:33:37;0.50;;;0.50;;
4078;SDS011;2054;47.858;11.156;2023-08-06T13:36:04;0.60;;;0.60;;
4078;SDS011;2054;47.858;11.156;2023-08-06T13:38:31;0.50;;;0.50;;
4078;SDS011;2054;47.858;11.156;2023-08-06T13:40:58;0.43;;;0.43;;
4078;SDS011;2054;47.858;11.156;2023-08-06T13:43:25;0.50;;;0.50;;
4078;SDS011;2054;47.858;11.156;2023-08-06T13:45:52;1.65;;;0.60;;
4078;SDS011;2054;47.858;11.156;2023-08-06T13:48:19;0.50;;;0.50;;
4078;SDS011;2054;47.858;11.156;2023-08-06T13:50:48;0.50;;;0.40;;
4078;SDS011;2054;47.858;11.156;2023-08-06T13:53:15;0.60;;;0.60;;
4078;SDS011;2054;47.858;11.156;2023-08-06T13:55:42;0.50;;;0.50;;
4078;SDS011;2054;47.858;11.156;2023-08-06T13:58:09;2.03;;;0.57;;
4078;SDS011;2054;47.858;11.156;2023-08-06T14:00:36;0.55;;;0.55;;
4078;SDS011;2054;47.858;11.156;2023-08-06T14:03:03;2.20;;;0.70;;
4078;SDS011;2054;47.858;11.156;2023-08-06T14:05:30;0.60;;;0.60;;
4078;SDS011;2054;47.858;11.156;2023-08-06T14:07:58;0.50;;;0.50;;
4078;SDS011;2054;47.858;11.156;2023-08-06T14:10:25;0.60;;;0.60;;
4078;SDS011;2054;47.858;11.156;2023-08-06T14:12:52;0.55;;;0.55;;
4078;SDS011;2054;47.858;11.156;2023-08-06T14:15:19;0.47;;;0.47;;
4078;SDS011;2054;47.858;11.156;2023-08-06T14:17:46;0.40;;;0.40;;
4078;SDS011;2054;47.858;11.156;2023-08-06T14:20:14;0.60;;;0.60;;
4078;SDS011;2054;47.858;11.156;2023-08-06T14:22:40;0.50;;;0.50;;
4078;SDS011;2054;47.858;11.156;2023-08-06T14:25:09;0.52;;;0.50;;
4078;SDS011;2054;47.858;11.156;2023-08-06T14:27:36;0.57;;;0.57;;
4078;SDS011;2054;47.858;11.156;2023-08-06T14:30:04;1.95;;;0.40;;
4078;SDS011;2054;47.858;11.156;2023-08-06T14:32:32;0.88;;;0.60;;
4078;SDS011;2054;47.858;11.156;2023-08-06T14:35:00;0.50;;;0.50;;
4078;SDS011;2054;47.858;11.156;2023-08-06T14:37:26;0.63;;;0.40;;
4078;SDS011;2054;47.858;11.156;2023-08-06T14:39:53;0.77;;;0.52;;
4078;SDS011;2054;47.858;11.156;2023-08-06T14:42:22;0.60;;;0.60;;
4078;SDS011;2054;47.858;11.156;2023-08-06T14:44:49;0.50;;;0.50;;
4078;SDS011;2054;47.858;11.156;2023-08-06T14:47:16;1.20;;;0.52;;
4078;SDS011;2054;47.858;11.156;2023-08-06T14:49:43;0.50;;;0.50;;
4078;SDS011;2054;47.858;11.156;2023-08-06T14:52:10;0.57;;;0.57;;
4078;SDS011;2054;47.858;11.156;2023-08-06T14:54:37;0.43;;;0.43;;
4078;SDS011;2054;47.858;11.156;2023-08-06T14:57:04;0.50;;;0.50;;
4078;SDS011;2054;47.858;11.156;2023-08-06T14:59:33;0.50;;;0.50;;
4078;SDS011;2054;47.858;11.156;2023-08-06T15:02:00;1.83;;;0.60;;
4078;SDS011;2054;47.858;11.156;2023-08-06T15:04:28;0.40;;;0.40;;
4078;SDS011;2054;47.858;11.156;2023-08-06T15:06:55;0.43;;;0.43;;
4078;SDS011;2054;47.858;11.156;2023-08-06T15:09:22;0.40;;;0.40;;
4078;SDS011;2054;47.858;11.156;2023-08-06T15:11:49;0.50;;;0.50;;
4078;SDS011;2054;47.858;11.156;2023-08-06T15:14:19;3.25;;;0.85;;
4078;SDS011;2054;47.858;11.156;2023-08-06T15:16:47;0.45;;;0.40;;
4078;SDS011;2054;47.858;11.156;2023-08-06T15:19:16;0.75;;;0.60;;
4078;SDS011;2054;47.858;11.156;2023-08-06T15:21:43;0.65;;;0.65;;
4078;SDS011;2054;47.858;11.156;2023-08-06T15:24:10;0.68;;;0.60;;
4078;SDS011;2054;47.858;11.156;2023-08-06T15:26:37;1.33;;;1.27;;
4078;SDS011;2054;47.858;11.156;2023-08-06T15:29:03;0.73;;;0.73;;
4078;SDS011;2054;47.858;11.156;2023-08-06T15:31:35;1.30;;;1.13;;
4078;SDS011;2054;47.858;11.156;2023-08-06T15:34:04;0.50;;;0.50;;
4078;SDS011;2054;47.858;11.156;2023-08-06T15:36:31;0.60;;;0.60;;
4078;SDS011;2054;47.858;11.156;2023-08-06T15:38:59;0.50;;;0.50;;
4078;SDS011;2054;47.858;11.156;2023-08-06T15:41:26;0.40;;;0.40;;
4078;SDS011;2054;47.858;11.156;2023-08-06T15:43:53;0.40;;;0.40;;
4078;SDS011;2054;47.858;11.156;2023-08-06T15:46:20;0.50;;;0.50;;
4078;SDS011;2054;47.858;11.156;2023-08-06T15:48:46;1.23;;;0.60;;
4078;SDS011;2054;47.858;11.156;2023-08-06T15:51:15;0.43;;;0.43;;
4078;SDS011;2054;47.858;11.156;2023-08-06T15:53:42;0.50;;;0.50;;
4078;SDS011;2054;47.858;11.156;2023-08-06T15:56:09;0.50;;;0.50;;
4078;SDS011;2054;47.858;11.156;2023-08-06T15:58:36;0.43;;;0.40;;
4078;SDS011;2054;47.858;11.156;2023-08-06T16:01:03;0.73;;;0.73;;
4078;SDS011;2054;47.858;11.156;2023-08-06T16:03:29;0.60;;;0.60;;
4078;SDS011;2054;47.858;11.156;2023-08-06T16:05:57;0.63;;;0.60;;
4078;SDS011;2054;47.858;11.156;2023-08-06T16:08:25;1.65;;;1.55;;
4078;SDS011;2054;47.858;11.156;2023-08-06T16:10:52;0.90;;;0.90;;
4078;SDS011;2054;47.858;11.156;2023-08-06T16:13:19;0.80;;;0.80;;
4078;SDS011;2054;47.858;11.156;2023-08-06T16:15:46;0.70;;;0.70;;
4078;SDS011;2054;47.858;11.156;2023-08-06T16:18:14;0.63;;;0.63;;
4078;SDS011;2054;47.858;11.156;2023-08-06T16:20:41;0.50;;;0.50;;
4078;SDS011;2054;47.858;11.156;2023-08-06T16:23:10;0.57;;;0.57;;
4078;SDS011;2054;47.858;11.156;2023-08-06T16:25:39;0.50;;;0.50;;
4078;SDS011;2054;47.858;11.156;2023-08-06T16:28:10;0.95;;;0.63;;
4078;SDS011;2054;47.858;11.156;2023-08-06T16:30:42;0.50;;;0.45;;
4078;SDS011;2054;47.858;11.156;2023-08-06T16:33:10;0.60;;;0.60;;
4078;SDS011;2054;47.858;11.156;2023-08-06T16:35:37;0.60;;;0.60;;
4078;SDS011;2054;47.858;11.156;2023-08-06T16:38:05;0.70;;;0.70;;
4078;SDS011;2054;47.858;11.156;2023-08-06T16:40:32;0.68;;;0.68;;
4078;SDS011;2054;47.858;11.156;2023-08-06T16:44:54;0.47;;;0.47;;
4078;SDS011;2054;47.858;11.156;2023-08-06T16:47:21;1.42;;;0.88;;
4078;SDS011;2054;47.858;11.156;2023-08-06T16:49:48;0.65;;;0.65;;
4078;SDS011;2054;47.858;11.156;2023-08-06T16:52:15;0.98;;;0.98;;
4078;SDS011;2054;47.858;11.156;2023-08-06T16:54:43;0.63;;;0.63;;
4078;SDS011;2054;47.858;11.156;2023-08-06T16:57:10;0.60;;;0.60;;
4078;SDS011;2054;47.858;11.156;2023-08-06T16:59:38;1.48;;;0.90;;
4078;SDS011;2054;47.858;11.156;2023-08-06T17:02:06;0.93;;;0.60;;
4078;SDS011;2054;47.858;11.156;2023-08-06T17:04:33;2.70;;;0.98;;
4078;SDS011;2054;47.858;11.156;2023-08-06T17:07:00;1.15;;;0.90;;
4078;SDS011;2054;47.858;11.156;2023-08-06T17:09:27;0.60;;;0.60;;
4078;SDS011;2054;47.858;11.156;2023-08-06T17:11:54;0.88;;;0.77;;
4078;SDS011;2054;47.858;11.156;2023-08-06T17:14:21;0.70;;;0.70;;
4078;SDS011;2054;47.858;11.156;2023-08-06T17:16:48;0.80;;;0.80;;
4078;SDS011;2054;47.858;11.156;2023-08-06T17:19:16;0.70;;;0.70;;
4078;SDS011;2054;47.858;11.156;2023-08-06T17:21:44;0.80;;;0.80;;
4078;SDS011;2054;47.858;11.156;2023-08-06T17:24:11;1.10;;;0.75;;
4078;SDS011;2054;47.858;11.156;2023-08-06T17:26:38;0.80;;;0.77;;
4078;SDS011;2054;47.858;11.156;2023-08-06T17:29:05;1.33;;;0.95;;
4078;SDS011;2054;47.858;11.156;2023-08-06T17:31:32;0.82;;;0.70;;
4078;SDS011;2054;47.858;11.156;2023-08-06T17:33:59;1.08;;;0.80;;
4078;SDS011;2054;47.858;11.156;2023-08-06T17:36:27;1.15;;;1.00;;
4078;SDS011;2054;47.858;11.156;2023-08-06T17:38:54;0.90;;;0.90;;
4078;SDS011;2054;47.858;11.156;2023-08-06T17:41:22;2.45;;;1.10;;
4078;SDS011;2054;47.858;11.156;2023-08-06T17:43:49;0.90;;;0.90;;
4078;SDS011;2054;47.858;11.156;2023-08-06T17:46:16;1.63;;;0.90;;
4078;SDS011;2054;47.858;11.156;2023-08-06T17:48:43;1.33;;;1.10;;
4078;SDS011;2054;47.858;11.156;2023-08-06T17:51:10;1.20;;;1.10;;
4078;SDS011;2054;47.858;11.156;2023-08-06T17:53:38;1.42;;;1.10;;